Time,TemperatureF,DewpointF,PressureIn,WindDirection,WindDirectionDegrees,WindSpeedMPH,WindSpeedGustMPH,Humidity,HourlyPrecipIn,Conditions,Clouds,dailyrainin,SoftwareType,DateUTC
2014-01-06 00:00:00,45.4,41.5,29.39,SSW,199,4.5,13.5,86,0.00,,---,0.00,VWS V14.01,2014-01-06 05:00:00,
2014-01-06 00:01:00,44.7,40.5,29.42,South,179,3.0,10.5,85,0.00,,---,0.02,VWS V14.01,2014-01-06 05:01:00,
2014-01-06 00:02:00,44.8,40.6,29.42,South,175,4.5,10.5,85,0.00,,---,0.00,VWS V14.01,2014-01-06 05:02:00,
2014-01-06 00:07:00,44.8,40.6,29.42,South,176,6.0,10.5,85,0.00,,---,0.00,VWS V14.01,2014-01-06 05:07:00,
2014-01-06 00:10:00,45.2,41.3,29.39,South,183,4.5,9.0,86,0.00,,---,0.00,VWS V14.01,2014-01-06 05:10:00,
2014-01-06 00:12:00,44.9,40.7,29.42,SSW,196,6.0,6.0,85,0.00,,---,0.00,VWS V14.01,2014-01-06 05:12:00,
2014-01-06 00:17:00,45.0,40.8,29.42,SSW,192,6.0,10.5,85,0.00,,---,0.00,VWS V14.01,2014-01-06 05:17:00,
2014-01-06 00:20:00,45.1,41.5,29.36,SSW,192,4.5,7.5,87,0.00,,---,0.00,VWS V14.01,2014-01-06 05:20:00,
2014-01-06 00:22:00,45.0,40.8,29.42,SSW,201,3.0,3.0,85,0.00,,---,0.00,VWS V14.01,2014-01-06 05:22:00,
2014-01-06 00:27:00,45.1,40.6,29.42,SW,215,3.0,9.0,84,0.00,,---,0.00,VWS V14.01,2014-01-06 05:27:00,
2014-01-06 00:30:00,45.1,41.8,29.36,SSW,194,3.0,9.0,88,0.00,,---,0.00,VWS V14.01,2014-01-06 05:30:00,
2014-01-06 00:32:00,45.1,40.9,29.42,SSW,197,3.0,4.5,85,0.00,,---,0.00,VWS V14.01,2014-01-06 05:32:00,
2014-01-06 00:37:00,45.1,40.9,29.42,SSW,204,4.5,15.0,85,0.00,,---,0.00,VWS V14.01,2014-01-06 05:37:00,
2014-01-06 00:40:00,45.1,41.8,29.36,South,181,4.5,9.0,88,0.00,,---,0.00,VWS V14.01,2014-01-06 05:40:00,
2014-01-06 00:42:00,45.2,41.0,29.42,SW,214,6.0,10.5,85,0.00,,---,0.00,VWS V14.01,2014-01-06 05:42:00,
2014-01-06 00:47:00,45.3,41.1,29.40,SW,220,3.0,13.5,85,0.00,,---,0.00,VWS V14.01,2014-01-06 05:47:00,
2014-01-06 00:50:00,44.7,41.7,29.32,South,184,4.5,9.0,89,0.00,,---,0.00,VWS V14.01,2014-01-06 05:50:00,
2014-01-06 00:52:00,45.4,41.2,29.40,SSW,205,4.5,13.5,85,0.00,,---,0.00,VWS V14.01,2014-01-06 05:52:00,
2014-01-06 00:57:00,45.5,41.6,29.40,SSW,200,3.0,13.5,86,0.00,,---,0.00,VWS V14.01,2014-01-06 05:57:00,
2014-01-06 01:00:00,44.5,41.8,29.30,SSW,197,1.5,10.5,90,0.00,,---,0.00,VWS V14.01,2014-01-06 06:00:00,
2014-01-06 01:02:00,45.4,41.5,29.39,South,182,4.5,9.0,86,0.00,,---,0.00,VWS V14.01,2014-01-06 06:02:00,
2014-01-06 01:07:00,45.3,41.4,29.39,SSW,199,3.0,9.0,86,0.00,,---,0.00,VWS V14.01,2014-01-06 06:07:00,
2014-01-06 01:10:00,44.5,41.8,29.30,SSW,199,3.0,15.0,90,0.00,,---,0.00,VWS V14.01,2014-01-06 06:10:00,
2014-01-06 01:12:00,45.2,41.3,29.39,SSW,193,4.5,7.5,86,0.00,,---,0.00,VWS V14.01,2014-01-06 06:12:00,
2014-01-06 01:17:00,45.2,41.6,29.36,SSW,194,3.0,7.5,87,0.00,,---,0.00,VWS V14.01,2014-01-06 06:17:00,
2014-01-06 01:20:00,44.5,41.8,29.30,SSW,196,3.0,7.5,90,0.00,,---,0.00,VWS V14.01,2014-01-06 06:20:00,
2014-01-06 01:22:00,45.1,41.5,29.36,SSE,161,4.5,7.5,87,0.00,,---,0.00,VWS V14.01,2014-01-06 06:22:00,
2014-01-06 01:27:00,45.1,41.5,29.36,South,175,1.5,9.0,87,0.00,,---,0.00,VWS V14.01,2014-01-06 06:27:00,
2014-01-06 01:32:00,45.1,41.8,29.36,SSE,166,6.0,6.0,88,0.00,,---,0.00,VWS V14.01,2014-01-06 06:32:00,
2014-01-06 01:37:00,45.1,41.8,29.36,South,185,6.0,9.0,88,0.00,,---,0.00,VWS V14.01,2014-01-06 06:37:00,
2014-01-06 01:40:00,44.5,42.3,29.29,South,172,9.0,10.5,92,0.00,,---,0.00,VWS V14.01,2014-01-06 06:40:00,
2014-01-06 01:42:00,45.1,41.8,29.36,South,179,4.5,9.0,88,0.00,,---,0.00,VWS V14.01,2014-01-06 06:42:00,
2014-01-06 01:47:00,44.9,41.6,29.32,South,178,4.5,9.0,88,0.00,,---,0.00,VWS V14.01,2014-01-06 06:47:00,
2014-01-06 01:52:00,44.7,41.7,29.32,SSE,156,4.5,6.0,89,0.00,,---,0.00,VWS V14.01,2014-01-06 06:52:00,
2014-01-06 01:57:00,44.6,41.6,29.32,SSE,155,3.0,10.5,89,0.00,,---,0.00,VWS V14.01,2014-01-06 06:57:00,
2014-01-06 02:00:00,44.7,42.5,29.26,South,180,1.5,10.5,92,0.00,,---,0.00,VWS V14.01,2014-01-06 07:00:00,
2014-01-06 02:02:00,44.5,41.8,29.30,SSE,154,6.0,10.5,90,0.00,,---,0.00,VWS V14.01,2014-01-06 07:02:00,
2014-01-06 02:07:00,44.5,41.8,29.30,SSW,192,3.0,15.0,90,0.00,,---,0.00,VWS V14.01,2014-01-06 07:07:00,
2014-01-06 02:10:00,44.9,42.7,29.26,SSW,194,1.5,10.5,92,0.00,,---,0.00,VWS V14.01,2014-01-06 07:10:00,
2014-01-06 02:13:00,44.5,41.8,29.30,SSW,197,4.5,7.5,90,0.00,,---,0.00,VWS V14.01,2014-01-06 07:13:00,
2014-01-06 02:18:00,44.5,41.8,29.30,South,174,3.0,7.5,90,0.00,,---,0.00,VWS V14.01,2014-01-06 07:18:00,
2014-01-06 02:20:00,45.1,42.9,29.26,WSW,239,7.5,13.5,92,0.03,,---,0.03,VWS V14.01,2014-01-06 07:20:00,
2014-01-06 02:23:00,44.5,41.8,29.30,SSW,204,3.0,4.5,90,0.00,,---,0.00,VWS V14.01,2014-01-06 07:23:00,
2014-01-06 02:28:00,44.5,42.0,29.30,SSW,192,0.0,7.5,91,0.00,,---,0.00,VWS V14.01,2014-01-06 07:28:00,
2014-01-06 02:33:00,44.4,41.9,29.29,SSE,163,6.0,7.5,91,0.00,,---,0.00,VWS V14.01,2014-01-06 07:33:00,
2014-01-06 02:38:00,44.4,41.9,29.29,SSE,161,4.5,7.5,91,0.00,,---,0.00,VWS V14.01,2014-01-06 07:38:00,
2014-01-06 02:40:00,45.8,43.6,29.25,South,180,7.5,16.5,92,0.03,,---,0.03,VWS V14.01,2014-01-06 07:40:00,
2014-01-06 02:43:00,44.6,42.4,29.29,SSW,210,7.5,9.0,92,0.00,,---,0.00,VWS V14.01,2014-01-06 07:43:00,
2014-01-06 02:48:00,44.7,42.5,29.28,SSE,162,9.0,15.0,92,0.00,,---,0.00,VWS V14.01,2014-01-06 07:48:00,
2014-01-06 02:50:00,45.8,43.3,29.23,South,172,4.5,9.0,91,0.03,,---,0.03,VWS V14.01,2014-01-06 07:50:00,
2014-01-06 02:53:00,44.7,42.5,29.28,South,187,4.5,6.0,92,0.00,,---,0.00,VWS V14.01,2014-01-06 07:53:00,
2014-01-06 02:58:00,44.7,42.5,29.28,SSW,204,7.5,10.5,92,0.00,,---,0.00,VWS V14.01,2014-01-06 07:58:00,
2014-01-06 03:00:00,45.5,43.3,29.23,SSW,193,3.0,13.5,92,0.03,,---,0.03,VWS V14.01,2014-01-06 08:00:00,
2014-01-06 03:03:00,44.7,42.5,29.26,SSW,199,6.0,10.5,92,0.00,,---,0.00,VWS V14.01,2014-01-06 08:03:00,
2014-01-06 03:08:00,44.9,42.7,29.26,SSW,193,3.0,10.5,92,0.00,,---,0.00,VWS V14.01,2014-01-06 08:08:00,
2014-01-06 03:10:00,45.3,43.1,29.23,South,183,4.5,13.5,92,0.03,,---,0.03,VWS V14.01,2014-01-06 08:10:00,
2014-01-06 03:13:00,44.9,42.7,29.26,SSW,208,6.0,6.0,92,0.03,,---,0.03,VWS V14.01,2014-01-06 08:13:00,
2014-01-06 03:18:00,45.0,42.8,29.26,South,180,6.0,7.5,92,0.03,,---,0.03,VWS V14.01,2014-01-06 08:18:00,
2014-01-06 03:20:00,45.2,42.7,29.23,SSW,209,3.0,12.0,91,0.03,,---,0.03,VWS V14.01,2014-01-06 08:20:00,
2014-01-06 03:23:00,45.1,42.9,29.26,South,172,3.0,7.5,92,0.03,,---,0.03,VWS V14.01,2014-01-06 08:23:00,
2014-01-06 03:28:00,45.2,43.0,29.26,SSW,193,3.0,9.0,92,0.03,,---,0.03,VWS V14.01,2014-01-06 08:28:00,
2014-01-06 03:30:00,45.1,42.9,29.22,SSW,199,1.5,7.5,92,0.00,,---,0.03,VWS V14.01,2014-01-06 08:30:00,
2014-01-06 03:33:00,45.4,43.2,29.25,South,191,7.5,10.5,92,0.03,,---,0.03,VWS V14.01,2014-01-06 08:33:00,
2014-01-06 03:38:00,45.6,43.4,29.25,SSE,167,7.5,12.0,92,0.03,,---,0.03,VWS V14.01,2014-01-06 08:38:00,
2014-01-06 03:40:00,44.9,42.7,29.22,SSW,207,1.5,7.5,92,0.00,,---,0.03,VWS V14.01,2014-01-06 08:40:00,
2014-01-06 03:43:00,45.8,43.6,29.25,South,188,1.5,9.0,92,0.03,,---,0.03,VWS V14.01,2014-01-06 08:43:00,
2014-01-06 03:48:00,45.8,43.6,29.23,SSW,197,0.0,9.0,92,0.03,,---,0.03,VWS V14.01,2014-01-06 08:48:00,
2014-01-06 03:50:00,44.8,42.6,29.23,West,273,6.0,7.5,92,0.00,,---,0.03,VWS V14.01,2014-01-06 08:50:00,
2014-01-06 03:53:00,45.7,43.2,29.23,South,183,4.5,6.0,91,0.03,,---,0.03,VWS V14.01,2014-01-06 08:53:00,
2014-01-06 03:58:00,45.6,43.4,29.23,South,173,6.0,13.5,92,0.03,,---,0.03,VWS V14.01,2014-01-06 08:58:00,
2014-01-06 04:00:00,44.9,43.0,29.26,SW,217,10.5,16.5,93,0.00,,---,0.03,VWS V14.01,2014-01-06 09:00:00,
2014-01-06 04:03:00,45.4,42.9,29.23,South,171,3.0,6.0,91,0.03,,---,0.03,VWS V14.01,2014-01-06 09:03:00,
2014-01-06 04:08:00,45.3,43.1,29.23,SW,216,3.0,10.5,92,0.03,,---,0.03,VWS V14.01,2014-01-06 09:08:00,
2014-01-06 04:10:00,45.9,43.1,29.26,SSW,213,3.0,18.0,90,0.00,,---,0.03,VWS V14.01,2014-01-06 09:10:00,
2014-01-06 04:13:00,45.3,42.8,29.23,South,183,4.5,12.0,91,0.03,,---,0.03,VWS V14.01,2014-01-06 09:13:00,
2014-01-06 04:18:00,45.3,42.8,29.23,South,187,3.0,12.0,91,0.03,,---,0.03,VWS V14.01,2014-01-06 09:18:00,
2014-01-06 04:23:00,45.2,42.7,29.23,South,182,3.0,4.5,91,0.00,,---,0.03,VWS V14.01,2014-01-06 09:23:00,
2014-01-06 04:28:00,45.1,42.6,29.23,SSW,192,4.5,7.5,91,0.00,,---,0.03,VWS V14.01,2014-01-06 09:28:00,
2014-01-06 04:30:00,45.5,41.3,29.26,WSW,238,9.0,27.0,85,0.03,,---,0.06,VWS V14.01,2014-01-06 09:30:00,
2014-01-06 04:33:00,45.0,42.8,29.22,SSW,199,6.0,6.0,92,0.00,,---,0.03,VWS V14.01,2014-01-06 09:33:00,
2014-01-06 04:38:00,44.9,42.7,29.22,SSW,207,0.0,7.5,92,0.00,,---,0.03,VWS V14.01,2014-01-06 09:38:00,
2014-01-06 04:40:00,44.6,40.7,29.26,WSW,250,12.0,24.0,86,0.03,,---,0.06,VWS V14.01,2014-01-06 09:40:00,
2014-01-06 04:43:00,44.9,42.7,29.22,SSW,203,0.0,4.5,92,0.00,,---,0.03,VWS V14.01,2014-01-06 09:43:00,
2014-01-06 04:49:00,44.8,42.6,29.23,SSW,193,1.5,4.5,92,0.00,,---,0.03,VWS V14.01,2014-01-06 09:49:00,
2014-01-06 04:50:00,44.2,40.3,29.25,SSW,208,6.0,18.0,86,0.03,,---,0.06,VWS V14.01,2014-01-06 09:50:00,
2014-01-06 04:54:00,44.7,42.5,29.23,South,183,3.0,7.5,92,0.00,,---,0.03,VWS V14.01,2014-01-06 09:54:00,
2014-01-06 04:59:00,44.7,42.5,29.23,SSE,148,10.5,10.5,92,0.00,,---,0.03,VWS V14.01,2014-01-06 09:59:00,
2014-01-06 05:00:00,44.5,39.4,29.26,SW,228,6.0,30.0,82,0.03,,---,0.06,VWS V14.01,2014-01-06 10:00:00,
2014-01-06 05:04:00,45.2,42.7,29.26,WSW,245,9.0,18.0,91,0.00,,---,0.03,VWS V14.01,2014-01-06 10:04:00,
2014-01-06 05:09:00,45.9,43.1,29.26,WSW,258,9.0,18.0,90,0.00,,---,0.03,VWS V14.01,2014-01-06 10:09:00,
2014-01-06 05:10:00,43.8,39.3,29.26,WSW,238,9.0,24.0,84,0.03,,---,0.06,VWS V14.01,2014-01-06 10:10:00,
2014-01-06 05:14:00,46.0,43.2,29.26,SW,225,3.0,7.5,90,0.00,,---,0.03,VWS V14.01,2014-01-06 10:14:00,
2014-01-06 05:19:00,45.8,43.0,29.26,West,259,13.5,21.0,90,0.03,,---,0.06,VWS V14.01,2014-01-06 10:19:00,
2014-01-06 05:20:00,39.1,35.0,29.32,West,275,10.5,34.5,85,0.03,,---,0.06,VWS V14.01,2014-01-06 10:20:00,
2014-01-06 05:24:00,46.0,42.0,29.26,WSW,253,10.5,19.5,86,0.03,,---,0.06,VWS V14.01,2014-01-06 10:24:00,
2014-01-06 05:29:00,45.6,41.4,29.26,West,273,9.0,27.0,85,0.03,,---,0.06,VWS V14.01,2014-01-06 10:29:00,
2014-01-06 05:30:00,37.7,33.3,29.33,West,268,4.5,33.0,84,0.00,,---,0.06,VWS V14.01,2014-01-06 10:30:00,
2014-01-06 05:34:00,45.4,41.2,29.26,West,280,13.5,24.0,85,0.03,,---,0.06,VWS V14.01,2014-01-06 10:34:00,
2014-01-06 05:39:00,44.8,40.6,29.26,SW,234,7.5,24.0,85,0.03,,---,0.06,VWS V14.01,2014-01-06 10:39:00,
2014-01-06 05:40:00,37.0,33.2,29.33,West,276,6.0,19.5,86,0.00,,---,0.06,VWS V14.01,2014-01-06 10:40:00,
2014-01-06 05:44:00,44.5,40.6,29.26,WNW,303,6.0,13.5,86,0.03,,---,0.06,VWS V14.01,2014-01-06 10:44:00,
2014-01-06 05:49:00,44.2,40.6,29.25,SW,230,3.0,13.5,87,0.03,,---,0.06,VWS V14.01,2014-01-06 10:49:00,
2014-01-06 05:50:00,36.0,31.6,29.34,WNW,284,21.0,27.0,84,0.00,,---,0.06,VWS V14.01,2014-01-06 10:50:00,
2014-01-06 05:54:00,44.2,40.0,29.25,West,262,9.0,16.5,85,0.03,,---,0.06,VWS V14.01,2014-01-06 10:54:00,
2014-01-06 05:59:00,44.4,39.6,29.25,WSW,237,10.5,25.5,83,0.03,,---,0.06,VWS V14.01,2014-01-06 10:59:00,
2014-01-06 06:00:00,35.3,31.2,29.38,West,274,9.0,24.0,85,0.00,,---,0.06,VWS V14.01,2014-01-06 11:00:00,
2014-01-06 06:04:00,44.4,39.3,29.26,WSW,245,9.0,21.0,82,0.03,,---,0.06,VWS V14.01,2014-01-06 11:04:00,
2014-01-06 06:09:00,44.0,39.2,29.26,WNW,303,15.0,24.0,83,0.03,,---,0.06,VWS V14.01,2014-01-06 11:09:00,
2014-01-06 06:10:00,34.8,30.5,29.38,WNW,290,13.5,22.5,84,0.00,,---,0.06,VWS V14.01,2014-01-06 11:10:00,
2014-01-06 06:14:00,43.2,38.7,29.26,WNW,293,18.0,18.0,84,0.03,,---,0.06,VWS V14.01,2014-01-06 11:14:00,
2014-01-06 06:19:00,39.9,35.2,29.32,WNW,299,9.0,34.5,83,0.03,,---,0.06,VWS V14.01,2014-01-06 11:19:00,
2014-01-06 06:20:00,34.2,29.6,29.38,West,274,7.5,24.0,83,0.00,,---,0.06,VWS V14.01,2014-01-06 11:20:00,
2014-01-06 06:24:00,38.6,34.5,29.32,WSW,244,9.0,33.0,85,0.00,,---,0.06,VWS V14.01,2014-01-06 11:24:00,
2014-01-06 06:29:00,37.9,33.5,29.32,WNW,282,30.0,33.0,84,0.00,,---,0.06,VWS V14.01,2014-01-06 11:29:00,
2014-01-06 06:30:00,33.9,29.3,29.41,WNW,290,16.5,21.0,83,0.00,,---,0.06,VWS V14.01,2014-01-06 11:30:00,
2014-01-06 06:34:00,37.5,33.4,29.33,West,277,4.5,13.5,85,0.00,,---,0.06,VWS V14.01,2014-01-06 11:34:00,
2014-01-06 06:39:00,37.1,33.3,29.33,SW,222,6.0,19.5,86,0.00,,---,0.06,VWS V14.01,2014-01-06 11:39:00,
2014-01-06 06:40:00,33.8,28.6,29.41,West,261,9.0,28.5,81,0.01,,---,0.07,VWS V14.01,2014-01-06 11:40:00,
2014-01-06 06:44:00,36.8,33.0,29.33,West,264,9.0,21.0,86,0.00,,---,0.06,VWS V14.01,2014-01-06 11:44:00,
2014-01-06 06:49:00,36.2,32.1,29.34,WSW,257,22.5,22.5,85,0.00,,---,0.06,VWS V14.01,2014-01-06 11:49:00,
2014-01-06 06:50:00,33.7,28.8,29.44,WSW,250,9.0,24.0,82,0.01,,---,0.07,VWS V14.01,2014-01-06 11:50:00,
2014-01-06 06:54:00,35.8,31.5,29.34,NW,324,12.0,22.5,84,0.00,,---,0.06,VWS V14.01,2014-01-06 11:54:00,
2014-01-06 06:59:00,35.4,31.4,29.34,WSW,237,13.5,22.5,85,0.00,,---,0.06,VWS V14.01,2014-01-06 11:59:00,
2014-01-06 07:00:00,33.3,27.5,29.44,ENE,76,12.0,24.0,79,0.01,,---,0.07,VWS V14.01,2014-01-06 12:00:00,
2014-01-06 07:04:00,35.2,30.9,29.38,WSW,242,6.0,18.0,84,0.00,,---,0.06,VWS V14.01,2014-01-06 12:04:00,
2014-01-06 07:09:00,34.9,30.6,29.38,SSW,211,9.0,22.5,84,0.00,,---,0.06,VWS V14.01,2014-01-06 12:09:00,
2014-01-06 07:10:00,32.9,26.8,29.44,SW,230,9.0,30.0,78,0.01,,---,0.07,VWS V14.01,2014-01-06 12:10:00,
2014-01-06 07:14:00,34.7,30.1,29.38,WSW,254,15.0,21.0,83,0.00,,---,0.06,VWS V14.01,2014-01-06 12:14:00,
2014-01-06 07:19:00,34.4,29.8,29.38,WNW,298,12.0,21.0,83,0.00,,---,0.06,VWS V14.01,2014-01-06 12:19:00,
2014-01-06 07:20:00,32.7,26.6,29.47,NW,306,13.5,25.5,78,0.01,,---,0.07,VWS V14.01,2014-01-06 12:20:00,
2014-01-06 07:24:00,34.1,29.5,29.38,WSW,239,3.0,10.5,83,0.00,,---,0.06,VWS V14.01,2014-01-06 12:24:00,
2014-01-06 07:29:00,33.9,29.3,29.38,West,265,12.0,21.0,83,0.00,,---,0.06,VWS V14.01,2014-01-06 12:29:00,
2014-01-06 07:30:00,32.3,26.2,29.48,WSW,249,6.0,22.5,78,0.01,,---,0.07,VWS V14.01,2014-01-06 12:30:00,
2014-01-06 07:34:00,33.8,28.9,29.41,WSW,239,7.5,21.0,82,0.00,,---,0.06,VWS V14.01,2014-01-06 12:34:00,
2014-01-06 07:39:00,33.8,28.9,29.41,SW,227,9.0,21.0,82,0.00,,---,0.06,VWS V14.01,2014-01-06 12:39:00,
2014-01-06 07:40:00,32.0,25.9,29.48,WSW,255,18.0,33.0,78,0.01,,---,0.07,VWS V14.01,2014-01-06 12:40:00,
2014-01-06 07:44:00,33.8,28.9,29.41,NW,326,15.0,24.0,82,0.01,,---,0.07,VWS V14.01,2014-01-06 12:44:00,
2014-01-06 07:49:00,33.8,28.6,29.44,WNW,302,4.5,24.0,81,0.01,,---,0.07,VWS V14.01,2014-01-06 12:49:00,
2014-01-06 07:50:00,31.4,25.0,29.50,WNW,285,4.5,21.0,77,0.00,,---,0.07,VWS V14.01,2014-01-06 12:50:00,
2014-01-06 07:54:00,33.6,28.1,29.44,NW,310,9.0,22.5,80,0.01,,---,0.07,VWS V14.01,2014-01-06 12:54:00,
2014-01-06 07:59:00,33.4,27.6,29.44,SW,221,24.0,24.0,79,0.01,,---,0.07,VWS V14.01,2014-01-06 12:59:00,
2014-01-06 08:00:00,30.9,24.9,29.52,West,280,9.0,25.5,78,0.00,,---,0.07,VWS V14.01,2014-01-06 13:00:00,
2014-01-06 08:04:00,33.2,27.4,29.44,West,278,10.5,25.5,79,0.01,,---,0.07,VWS V14.01,2014-01-06 13:04:00,
2014-01-06 08:09:00,33.0,27.2,29.44,SSW,203,3.0,25.5,79,0.01,,---,0.07,VWS V14.01,2014-01-06 13:09:00,
2014-01-06 08:10:00,30.3,24.3,29.52,NW,310,9.0,30.0,78,0.00,,---,0.07,VWS V14.01,2014-01-06 13:10:00,
2014-01-06 08:14:00,32.9,26.8,29.44,WNW,299,7.5,25.5,78,0.01,,---,0.07,VWS V14.01,2014-01-06 13:14:00,
2014-01-06 08:19:00,32.8,27.0,29.47,SW,234,13.5,25.5,79,0.01,,---,0.07,VWS V14.01,2014-01-06 13:19:00,
2014-01-06 08:20:00,29.7,23.7,29.53,WNW,292,16.5,24.0,78,0.00,,---,0.07,VWS V14.01,2014-01-06 13:20:00,
2014-01-06 08:24:00,32.6,26.5,29.47,NW,315,13.5,16.5,78,0.01,,---,0.07,VWS V14.01,2014-01-06 13:24:00,
2014-01-06 08:29:00,32.4,26.6,29.47,SW,214,9.0,22.5,79,0.01,,---,0.07,VWS V14.01,2014-01-06 13:29:00,
2014-01-06 08:34:00,32.3,26.2,29.48,SW,228,13.5,33.0,78,0.01,,---,0.07,VWS V14.01,2014-01-06 13:34:00,
2014-01-06 08:39:00,32.1,25.7,29.48,SW,231,7.5,33.0,77,0.01,,---,0.07,VWS V14.01,2014-01-06 13:39:00,
2014-01-06 08:40:00,28.7,22.1,29.55,West,280,13.5,24.0,76,0.00,,---,0.07,VWS V14.01,2014-01-06 13:40:00,
2014-01-06 08:44:00,31.9,25.8,29.48,SW,227,9.0,19.5,78,0.00,,---,0.07,VWS V14.01,2014-01-06 13:44:00,
2014-01-06 08:49:00,31.5,25.1,29.50,NW,306,21.0,21.0,77,0.00,,---,0.07,VWS V14.01,2014-01-06 13:49:00,
2014-01-06 08:50:00,28.3,21.7,29.57,NW,322,16.5,28.5,76,0.00,,---,0.07,VWS V14.01,2014-01-06 13:50:00,
2014-01-06 08:54:00,31.2,25.1,29.50,NW,322,15.0,19.5,78,0.00,,---,0.07,VWS V14.01,2014-01-06 13:54:00,
2014-01-06 08:59:00,31.0,25.0,29.50,WNW,282,7.5,19.5,78,0.00,,---,0.07,VWS V14.01,2014-01-06 13:59:00,
2014-01-06 09:03:00,30.8,24.8,29.52,West,265,9.0,12.0,78,0.00,,---,0.07,VWS V14.01,2014-01-06 14:03:00,
2014-01-06 09:08:00,30.6,24.6,29.52,West,272,6.0,15.0,78,0.00,,---,0.07,VWS V14.01,2014-01-06 14:08:00,
2014-01-06 09:10:00,28.1,20.6,29.57,WNW,287,6.0,31.5,73,0.00,,---,0.07,VWS V14.01,2014-01-06 14:10:00,
2014-01-06 09:13:00,30.2,24.2,29.52,WNW,284,16.5,24.0,78,0.00,,---,0.07,VWS V14.01,2014-01-06 14:13:00,
2014-01-06 09:18:00,29.9,23.9,29.53,SW,218,13.5,24.0,78,0.00,,---,0.07,VWS V14.01,2014-01-06 14:18:00,
2014-01-06 09:20:00,27.8,19.6,29.56,NW,322,6.0,28.5,71,0.00,,---,0.07,VWS V14.01,2014-01-06 14:20:00,
2014-01-06 09:23:00,29.6,23.6,29.53,WSW,256,10.5,16.5,78,0.00,,---,0.07,VWS V14.01,2014-01-06 14:23:00,
2014-01-06 09:28:00,29.4,23.4,29.53,West,265,6.0,28.5,78,0.00,,---,0.07,VWS V14.01,2014-01-06 14:28:00,
2014-01-06 09:30:00,27.7,19.2,29.58,NW,312,6.0,36.0,70,0.00,,---,0.07,VWS V14.01,2014-01-06 14:30:00,
2014-01-06 09:33:00,29.2,22.9,29.55,West,275,4.5,22.5,77,0.00,,---,0.07,VWS V14.01,2014-01-06 14:33:00,
2014-01-06 09:38:00,28.8,22.2,29.55,WNW,287,6.0,24.0,76,0.00,,---,0.07,VWS V14.01,2014-01-06 14:38:00,
2014-01-06 09:40:00,27.9,19.1,29.58,North,0,15.0,34.5,69,0.00,,---,0.07,VWS V14.01,2014-01-06 14:40:00,
2014-01-06 09:43:00,28.6,21.7,29.55,West,268,15.0,19.5,75,0.00,,---,0.07,VWS V14.01,2014-01-06 14:43:00,
2014-01-06 09:48:00,28.4,21.8,29.57,NW,310,15.0,25.5,76,0.00,,---,0.07,VWS V14.01,2014-01-06 14:48:00,
2014-01-06 09:50:00,28.1,19.3,29.58,NW,322,4.5,21.0,69,0.00,,---,0.07,VWS V14.01,2014-01-06 14:50:00,
2014-01-06 09:53:00,28.3,21.7,29.57,SW,236,7.5,27.0,76,0.00,,---,0.07,VWS V14.01,2014-01-06 14:53:00,
2014-01-06 09:58:00,28.3,21.7,29.57,West,276,7.5,27.0,76,0.00,,---,0.07,VWS V14.01,2014-01-06 14:58:00,
2014-01-06 10:00:00,28.3,19.5,29.58,West,277,9.0,28.5,69,0.00,,---,0.07,VWS V14.01,2014-01-06 15:00:00,
2014-01-06 10:03:00,28.2,21.3,29.57,NW,311,10.5,15.0,75,0.00,,---,0.07,VWS V14.01,2014-01-06 15:03:00,
2014-01-06 10:08:00,28.2,21.3,29.57,WNW,300,16.5,22.5,75,0.00,,---,0.07,VWS V14.01,2014-01-06 15:08:00,
2014-01-06 10:10:00,28.6,20.7,29.58,WNW,285,6.0,18.0,72,0.00,,---,0.07,VWS V14.01,2014-01-06 15:10:00,
2014-01-06 10:13:00,28.1,20.6,29.57,WSW,248,6.0,16.5,73,0.00,,---,0.07,VWS V14.01,2014-01-06 15:13:00,
2014-01-06 10:18:00,27.9,19.7,29.56,West,277,1.5,27.0,71,0.00,,---,0.07,VWS V14.01,2014-01-06 15:18:00,
2014-01-06 10:20:00,28.7,21.2,29.57,West,268,4.5,16.5,73,0.00,,---,0.07,VWS V14.01,2014-01-06 15:20:00,
2014-01-06 10:23:00,27.8,19.3,29.56,WNW,300,15.0,24.0,70,0.00,,---,0.07,VWS V14.01,2014-01-06 15:23:00,
2014-01-06 10:28:00,27.6,19.1,29.56,West,260,25.5,36.0,70,0.00,,---,0.07,VWS V14.01,2014-01-06 15:28:00,
2014-01-06 10:30:00,28.7,20.8,29.57,West,274,16.5,21.0,72,0.00,,---,0.07,VWS V14.01,2014-01-06 15:30:00,
2014-01-06 10:33:00,27.8,19.6,29.58,WNW,288,16.5,34.5,71,0.00,,---,0.07,VWS V14.01,2014-01-06 15:33:00,
2014-01-06 10:38:00,27.9,19.4,29.58,NNW,336,9.0,34.5,70,0.00,,---,0.07,VWS V14.01,2014-01-06 15:38:00,
2014-01-06 10:40:00,28.7,20.8,29.57,West,266,10.5,19.5,72,0.00,,---,0.07,VWS V14.01,2014-01-06 15:40:00,
2014-01-06 10:43:00,28.0,19.2,29.58,WNW,284,7.5,16.5,69,0.00,,---,0.07,VWS V14.01,2014-01-06 15:43:00,
2014-01-06 10:48:00,28.1,19.6,29.58,NW,310,12.0,19.5,70,0.00,,---,0.07,VWS V14.01,2014-01-06 15:48:00,
2014-01-06 10:53:00,28.1,19.6,29.58,West,277,9.0,22.5,70,0.00,,---,0.07,VWS V14.01,2014-01-06 15:53:00,
2014-01-06 10:58:00,28.3,19.8,29.58,West,275,3.0,25.5,70,0.00,,---,0.07,VWS V14.01,2014-01-06 15:58:00,
2014-01-06 11:03:00,28.4,19.9,29.58,NNW,340,12.0,13.5,70,0.00,,---,0.07,VWS V14.01,2014-01-06 16:03:00,
2014-01-06 11:08:00,28.5,20.0,29.58,West,277,4.5,18.0,70,0.00,,---,0.07,VWS V14.01,2014-01-06 16:08:00,
2014-01-06 11:10:00,28.1,19.9,29.58,WNW,282,15.0,24.0,71,0.00,,---,0.07,VWS V14.01,2014-01-06 16:10:00,
2014-01-06 11:13:00,28.7,20.5,29.58,West,270,4.5,10.5,71,0.00,,---,0.07,VWS V14.01,2014-01-06 16:13:00,
2014-01-06 11:18:00,28.7,21.1,29.57,SW,225,4.5,16.5,73,0.00,,---,0.07,VWS V14.01,2014-01-06 16:18:00,
2014-01-06 11:20:00,28.0,20.2,29.57,WNW,289,10.5,21.0,72,0.00,,---,0.07,VWS V14.01,2014-01-06 16:20:00,
2014-01-06 11:24:00,28.8,21.2,29.57,West,280,3.0,21.0,73,0.00,,---,0.07,VWS V14.01,2014-01-06 16:24:00,
2014-01-06 11:29:00,28.7,21.1,29.57,WNW,302,4.5,21.0,73,0.00,,---,0.07,VWS V14.01,2014-01-06 16:29:00,
2014-01-06 11:30:00,27.9,20.4,29.57,WSW,252,9.0,30.0,73,0.00,,---,0.07,VWS V14.01,2014-01-06 16:30:00,
2014-01-06 11:34:00,28.6,20.7,29.57,NW,320,3.0,19.5,72,0.00,,---,0.07,VWS V14.01,2014-01-06 16:34:00,
2014-01-06 11:39:00,28.6,20.7,29.57,NNE,29,3.0,19.5,72,0.00,,---,0.07,VWS V14.01,2014-01-06 16:39:00,
2014-01-06 11:40:00,27.6,19.8,29.57,NW,321,7.5,22.5,72,0.00,,---,0.07,VWS V14.01,2014-01-06 16:40:00,
2014-01-06 11:44:00,28.6,20.4,29.57,NW,320,7.5,19.5,71,0.00,,---,0.07,VWS V14.01,2014-01-06 16:44:00,
2014-01-06 11:49:00,28.5,20.0,29.58,WNW,294,7.5,30.0,70,0.00,,---,0.07,VWS V14.01,2014-01-06 16:49:00,
2014-01-06 11:50:00,27.3,19.8,29.57,West,267,10.5,28.5,73,0.00,,---,0.07,VWS V14.01,2014-01-06 16:50:00,
2014-01-06 11:54:00,28.3,19.5,29.58,NNW,335,7.5,12.0,69,0.00,,---,0.07,VWS V14.01,2014-01-06 16:54:00,
2014-01-06 11:59:00,28.2,19.7,29.58,WSW,239,6.0,19.5,70,0.00,,---,0.07,VWS V14.01,2014-01-06 16:59:00,
2014-01-06 12:04:00,28.2,20.4,29.58,West,270,13.5,18.0,72,0.00,,---,0.07,VWS V14.01,2014-01-06 17:04:00,
2014-01-06 12:09:00,28.1,20.2,29.58,SW,234,4.5,22.5,72,0.00,,---,0.07,VWS V14.01,2014-01-06 17:09:00,
2014-01-06 12:10:00,26.7,19.5,29.58,NNW,342,9.0,24.0,74,0.00,,---,0.07,VWS V14.01,2014-01-06 17:10:00,
2014-01-06 12:14:00,28.0,19.8,29.58,WNW,284,7.5,21.0,71,0.00,,---,0.07,VWS V14.01,2014-01-06 17:14:00,
2014-01-06 12:19:00,28.0,19.8,29.57,WNW,285,4.5,21.0,71,0.00,,---,0.07,VWS V14.01,2014-01-06 17:19:00,
2014-01-06 12:24:00,27.9,19.4,29.57,NW,317,7.5,25.5,70,0.00,,---,0.07,VWS V14.01,2014-01-06 17:24:00,
2014-01-06 12:29:00,27.9,20.4,29.57,WSW,254,4.5,30.0,73,0.00,,---,0.07,VWS V14.01,2014-01-06 17:29:00,
2014-01-06 12:30:00,26.1,18.6,29.59,WSW,245,7.5,28.5,73,0.00,,---,0.07,VWS V14.01,2014-01-06 17:30:00,
2014-01-06 12:34:00,27.9,20.4,29.57,WNW,291,7.5,10.5,73,0.00,,---,0.07,VWS V14.01,2014-01-06 17:34:00,
2014-01-06 12:39:00,27.7,19.9,29.57,WNW,287,13.5,22.5,72,0.00,,---,0.07,VWS V14.01,2014-01-06 17:39:00,
2014-01-06 12:40:00,26.0,18.2,29.59,West,266,3.0,19.5,72,0.00,,---,0.07,VWS V14.01,2014-01-06 17:40:00,
2014-01-06 12:44:00,27.4,19.6,29.57,WNW,303,7.5,24.0,72,0.00,,---,0.07,VWS V14.01,2014-01-06 17:44:00,
2014-01-06 12:49:00,27.4,19.9,29.57,WNW,282,7.5,24.0,73,0.00,,---,0.07,VWS V14.01,2014-01-06 17:49:00,
2014-01-06 12:50:00,25.5,16.8,29.60,West,262,4.5,19.5,69,0.00,,---,0.07,VWS V14.01,2014-01-06 17:50:00,
2014-01-06 12:54:00,27.2,19.7,29.57,NW,315,6.0,16.5,73,0.00,,---,0.07,VWS V14.01,2014-01-06 17:54:00,
2014-01-06 12:59:00,27.1,20.2,29.57,NW,320,3.0,21.0,75,0.00,,---,0.07,VWS V14.01,2014-01-06 17:59:00,
2014-01-06 13:04:00,27.0,20.1,29.58,NW,306,21.0,21.0,75,0.00,,---,0.07,VWS V14.01,2014-01-06 18:04:00,
2014-01-06 13:09:00,26.8,19.6,29.58,SW,231,6.0,21.0,74,0.00,,---,0.07,VWS V14.01,2014-01-06 18:09:00,
2014-01-06 13:10:00,25.7,17.0,29.60,NW,308,10.5,27.0,69,0.00,,---,0.07,VWS V14.01,2014-01-06 18:10:00,
2014-01-06 13:14:00,26.5,19.7,29.58,West,280,9.0,18.0,75,0.00,,---,0.07,VWS V14.01,2014-01-06 18:14:00,
2014-01-06 13:19:00,26.5,19.4,29.58,West,269,9.0,18.0,74,0.00,,---,0.07,VWS V14.01,2014-01-06 18:19:00,
2014-01-06 13:20:00,25.2,16.1,29.61,WNW,288,18.0,27.0,68,0.00,,---,0.07,VWS V14.01,2014-01-06 18:20:00,
2014-01-06 13:24:00,26.4,19.2,29.58,NW,315,6.0,28.5,74,0.00,,---,0.07,VWS V14.01,2014-01-06 18:24:00,
2014-01-06 13:29:00,26.2,19.1,29.58,WNW,286,16.5,28.5,74,0.00,,---,0.07,VWS V14.01,2014-01-06 18:29:00,
2014-01-06 13:34:00,26.0,18.5,29.59,WSW,239,12.0,19.5,73,0.00,,---,0.07,VWS V14.01,2014-01-06 18:34:00,
2014-01-06 13:39:00,26.0,18.5,29.59,WNW,296,6.0,19.5,73,0.00,,---,0.07,VWS V14.01,2014-01-06 18:39:00,
2014-01-06 13:40:00,24.3,14.9,29.62,WNW,284,7.5,25.5,67,0.00,,---,0.07,VWS V14.01,2014-01-06 18:40:00,
2014-01-06 13:44:00,25.9,17.8,29.59,WNW,282,6.0,18.0,71,0.00,,---,0.07,VWS V14.01,2014-01-06 18:44:00,
2014-01-06 13:49:00,25.6,16.9,29.60,West,270,7.5,19.5,69,0.00,,---,0.07,VWS V14.01,2014-01-06 18:49:00,
2014-01-06 13:54:00,25.4,16.7,29.60,NW,306,15.0,21.0,69,0.00,,---,0.07,VWS V14.01,2014-01-06 18:54:00,
2014-01-06 13:59:00,25.4,16.7,29.60,West,276,10.5,21.0,69,0.00,,---,0.07,VWS V14.01,2014-01-06 18:59:00,
2014-01-06 14:04:00,25.5,16.8,29.60,NW,308,4.5,16.5,69,0.00,,---,0.07,VWS V14.01,2014-01-06 19:04:00,
2014-01-06 14:09:00,25.7,17.0,29.60,WNW,292,13.5,27.0,69,0.00,,---,0.07,VWS V14.01,2014-01-06 19:09:00,
2014-01-06 14:14:00,25.7,16.3,29.60,WNW,298,18.0,19.5,67,0.00,,---,0.07,VWS V14.01,2014-01-06 19:14:00,
2014-01-06 14:19:00,25.4,16.0,29.61,SW,236,7.5,24.0,67,0.00,,---,0.07,VWS V14.01,2014-01-06 19:19:00,
2014-01-06 14:20:00,22.9,13.3,29.64,NW,315,15.0,22.5,66,0.00,,---,0.07,VWS V14.01,2014-01-06 19:20:00,
2014-01-06 14:24:00,25.0,15.6,29.61,WSW,256,22.5,22.5,67,0.00,,---,0.07,VWS V14.01,2014-01-06 19:24:00,
2014-01-06 14:29:00,24.7,15.3,29.61,West,269,9.0,27.0,67,0.00,,---,0.07,VWS V14.01,2014-01-06 19:29:00,
2014-01-06 14:30:00,22.6,12.3,29.64,North,351,9.0,37.5,64,0.00,,---,0.07,VWS V14.01,2014-01-06 19:30:00,
2014-01-06 14:34:00,24.6,15.2,29.62,West,275,7.5,18.0,67,0.00,,---,0.07,VWS V14.01,2014-01-06 19:34:00,
2014-01-06 14:39:00,24.4,15.0,29.62,West,273,10.5,25.5,67,0.00,,---,0.07,VWS V14.01,2014-01-06 19:39:00,
2014-01-06 14:40:00,22.2,11.9,29.64,SW,228,15.0,24.0,64,0.00,,---,0.07,VWS V14.01,2014-01-06 19:40:00,
2014-01-06 14:44:00,24.2,15.2,29.62,WNW,300,10.5,19.5,68,0.00,,---,0.07,VWS V14.01,2014-01-06 19:44:00,
2014-01-06 14:49:00,24.0,14.6,29.63,WNW,282,6.0,31.5,67,0.00,,---,0.07,VWS V14.01,2014-01-06 19:49:00,
2014-01-06 14:54:00,23.9,14.9,29.63,West,280,16.5,16.5,68,0.00,,---,0.07,VWS V14.01,2014-01-06 19:54:00,
2014-01-06 14:59:00,23.6,13.9,29.63,West,273,10.5,21.0,66,0.00,,---,0.07,VWS V14.01,2014-01-06 19:59:00,
2014-01-06 15:00:00,22.1,12.1,29.64,WNW,303,9.0,22.5,65,0.00,,---,0.07,VWS V14.01,2014-01-06 20:00:00,
2014-01-06 15:04:00,23.1,13.1,29.64,West,280,16.5,24.0,65,0.00,,---,0.07,VWS V14.01,2014-01-06 20:04:00,
2014-01-06 15:09:00,22.9,12.6,29.64,NW,310,9.0,28.5,64,0.00,,---,0.07,VWS V14.01,2014-01-06 20:09:00,
2014-01-06 15:10:00,21.8,11.9,29.64,WNW,284,6.0,28.5,65,0.00,,---,0.07,VWS V14.01,2014-01-06 20:10:00,
2014-01-06 15:14:00,22.8,12.5,29.64,NW,307,9.0,22.5,64,0.00,,---,0.07,VWS V14.01,2014-01-06 20:14:00,
2014-01-06 15:19:00,22.9,12.9,29.64,NW,318,9.0,22.5,65,0.00,,---,0.07,VWS V14.01,2014-01-06 20:19:00,
2014-01-06 15:20:00,20.9,11.7,29.65,NW,315,7.5,27.0,67,0.00,,---,0.07,VWS V14.01,2014-01-06 20:20:00,
2014-01-06 15:24:00,22.9,12.9,29.64,NW,322,10.5,21.0,65,0.00,,---,0.07,VWS V14.01,2014-01-06 20:24:00,
2014-01-06 15:29:00,22.7,12.0,29.64,West,261,3.0,37.5,63,0.00,,---,0.07,VWS V14.01,2014-01-06 20:29:00,
2014-01-06 15:30:00,20.3,12.7,29.65,WNW,294,4.5,22.5,72,0.00,,---,0.07,VWS V14.01,2014-01-06 20:30:00,
2014-01-06 15:34:00,22.5,11.8,29.64,WNW,282,7.5,13.5,63,0.00,,---,0.07,VWS V14.01,2014-01-06 20:34:00,
2014-01-06 15:39:00,22.3,12.0,29.64,NW,314,9.0,15.0,64,0.00,,---,0.07,VWS V14.01,2014-01-06 20:39:00,
2014-01-06 15:40:00,19.6,13.6,29.65,WNW,287,7.5,30.0,77,0.00,,---,0.07,VWS V14.01,2014-01-06 20:40:00,
2014-01-06 15:44:00,22.2,11.5,29.64,West,276,9.0,21.0,63,0.00,,---,0.07,VWS V14.01,2014-01-06 20:44:00,
2014-01-06 15:49:00,22.0,11.7,29.64,West,277,18.0,22.5,64,0.00,,---,0.07,VWS V14.01,2014-01-06 20:49:00,
2014-01-06 15:50:00,18.2,14.7,29.66,WNW,299,7.5,39.0,86,0.00,,---,0.07,VWS V14.01,2014-01-06 20:50:00,
2014-01-06 15:54:00,22.1,11.8,29.64,WSW,239,7.5,16.5,64,0.00,,---,0.07,VWS V14.01,2014-01-06 20:54:00,
2014-01-06 15:59:00,22.1,12.1,29.64,NW,309,7.5,22.5,65,0.00,,---,0.07,VWS V14.01,2014-01-06 20:59:00,
2014-01-06 16:00:00,18.0,13.7,29.67,West,268,4.5,39.0,83,0.00,,---,0.07,VWS V14.01,2014-01-06 21:00:00,
2014-01-06 16:04:00,22.0,12.1,29.64,NW,306,1.5,16.5,65,0.00,,---,0.07,VWS V14.01,2014-01-06 21:04:00,
2014-01-06 16:09:00,21.9,12.3,29.64,NW,304,15.0,28.5,66,0.00,,---,0.07,VWS V14.01,2014-01-06 21:09:00,
2014-01-06 16:10:00,17.3,12.5,29.67,WNW,283,6.0,24.0,81,0.00,,---,0.07,VWS V14.01,2014-01-06 21:10:00,
2014-01-06 16:14:00,21.5,11.9,29.64,WNW,300,15.0,24.0,66,0.00,,---,0.07,VWS V14.01,2014-01-06 21:14:00,
2014-01-06 16:19:00,21.0,11.4,29.65,WNW,291,9.0,27.0,66,0.00,,---,0.07,VWS V14.01,2014-01-06 21:19:00,
2014-01-06 16:20:00,17.2,10.9,29.69,WNW,282,10.5,28.5,76,0.00,,---,0.07,VWS V14.01,2014-01-06 21:20:00,
2014-01-06 16:24:00,20.8,12.2,29.65,NW,308,9.0,19.5,69,0.00,,---,0.07,VWS V14.01,2014-01-06 21:24:00,
2014-01-06 16:29:00,20.4,12.5,29.65,West,265,3.0,22.5,71,0.00,,---,0.07,VWS V14.01,2014-01-06 21:29:00,
2014-01-06 16:34:00,20.2,13.2,29.65,WNW,286,10.5,21.0,74,0.00,,---,0.07,VWS V14.01,2014-01-06 21:34:00,
2014-01-06 16:39:00,19.9,13.6,29.65,WNW,296,21.0,24.0,76,0.00,,---,0.07,VWS V14.01,2014-01-06 21:39:00,
2014-01-06 16:40:00,15.1,11.7,29.70,WSW,249,10.5,25.5,86,0.00,,---,0.07,VWS V14.01,2014-01-06 21:40:00,
2014-01-06 16:44:00,19.0,14.1,29.65,WSW,246,6.0,39.0,81,0.00,,---,0.07,VWS V14.01,2014-01-06 21:44:00,
2014-01-06 16:49:00,18.3,14.6,29.66,WSW,244,4.5,39.0,85,0.00,,---,0.07,VWS V14.01,2014-01-06 21:49:00,
2014-01-06 16:50:00,14.6,9.6,29.71,West,266,16.5,34.5,80,0.00,,---,0.07,VWS V14.01,2014-01-06 21:50:00,
2014-01-06 16:54:00,18.1,14.6,29.66,WSW,250,7.5,18.0,86,0.00,,---,0.07,VWS V14.01,2014-01-06 21:54:00,
2014-01-06 17:00:00,18.0,14.0,29.66,WSW,247,7.5,24.0,84,0.00,,---,0.07,VWS V14.01,2014-01-06 22:00:00,
2014-01-06 17:05:00,17.8,13.2,29.67,WNW,285,16.5,21.0,82,0.00,,---,0.07,VWS V14.01,2014-01-06 22:05:00,
2014-01-06 17:10:00,17.3,12.8,29.67,WNW,299,9.0,24.0,82,0.00,,---,0.07,VWS V14.01,2014-01-06 22:10:00,
2014-01-06 17:15:00,17.3,11.9,29.67,West,273,4.5,21.0,79,0.00,,---,0.07,VWS V14.01,2014-01-06 22:15:00,
2014-01-06 17:20:00,17.3,11.3,29.69,West,269,7.5,27.0,77,0.00,,---,0.07,VWS V14.01,2014-01-06 22:20:00,
2014-01-06 17:25:00,17.0,11.3,29.69,WNW,294,7.5,25.5,78,0.00,,---,0.07,VWS V14.01,2014-01-06 22:25:00,
2014-01-06 17:30:00,16.3,12.3,29.69,WSW,251,9.0,25.5,84,0.00,,---,0.07,VWS V14.01,2014-01-06 22:30:00,
2014-01-06 17:35:00,15.7,12.3,29.70,WSW,256,13.5,25.5,86,0.00,,---,0.07,VWS V14.01,2014-01-06 22:35:00,
2014-01-06 17:40:00,15.3,11.9,29.70,WSW,257,21.0,25.5,86,0.00,,---,0.07,VWS V14.01,2014-01-06 22:40:00,
2014-01-06 17:45:00,14.8,11.1,29.70,WSW,241,7.5,22.5,85,0.00,,---,0.07,VWS V14.01,2014-01-06 22:45:00,
2014-01-06 17:50:00,14.6,10.1,29.71,WSW,246,12.0,34.5,82,0.00,,---,0.07,VWS V14.01,2014-01-06 22:50:00,
2014-01-06 17:55:00,14.5,8.3,29.71,NW,318,22.5,31.5,76,0.00,,---,0.07,VWS V14.01,2014-01-06 22:55:00,
2014-01-06 18:00:00,14.3,7.6,29.71,WSW,239,10.5,31.5,74,0.00,,---,0.07,VWS V14.01,2014-01-06 23:00:00,
2014-01-06 18:05:00,14.0,6.7,29.72,WNW,294,15.0,16.5,72,0.00,,---,0.07,VWS V14.01,2014-01-06 23:05:00,
2014-01-06 18:10:00,13.9,6.9,29.72,West,277,9.0,21.0,73,0.00,,---,0.07,VWS V14.01,2014-01-06 23:10:00,
2014-01-06 18:15:00,13.5,7.4,29.72,WNW,289,13.5,18.0,76,0.00,,---,0.07,VWS V14.01,2014-01-06 23:15:00,
2014-01-06 18:20:00,13.0,6.0,29.74,WSW,246,4.5,28.5,73,0.00,,---,0.07,VWS V14.01,2014-01-06 23:20:00,
2014-01-06 18:25:00,12.7,4.8,29.74,NW,310,27.0,28.5,70,0.00,,---,0.07,VWS V14.01,2014-01-06 23:25:00,
2014-01-06 18:30:00,12.4,3.9,29.74,West,272,18.0,28.5,68,0.00,,---,0.07,VWS V14.01,2014-01-06 23:30:00,
2014-01-06 18:35:00,12.1,3.3,29.75,West,268,10.5,22.5,67,0.00,,---,0.07,VWS V14.01,2014-01-06 23:35:00,
2014-01-06 18:40:00,12.0,2.8,29.75,SW,235,22.5,22.5,66,0.00,,---,0.07,VWS V14.01,2014-01-06 23:40:00,
2014-01-06 18:45:00,11.8,2.7,29.75,SW,231,7.5,15.0,66,0.00,,---,0.07,VWS V14.01,2014-01-06 23:45:00,
2014-01-06 18:50:00,11.5,2.7,29.75,WNW,292,7.5,18.0,67,0.00,,---,0.07,VWS V14.01,2014-01-06 23:50:00,
2014-01-06 18:55:00,11.2,3.0,29.75,WNW,299,15.0,15.0,69,0.00,,---,0.07,VWS V14.01,2014-01-06 23:55:00,
2014-01-06 19:00:00,10.9,2.4,29.75,NW,319,4.5,19.5,68,0.00,,---,0.07,VWS V14.01,2014-01-07 00:00:00,
2014-01-06 19:05:00,10.7,2.2,29.75,West,259,7.5,18.0,68,0.00,,---,0.07,VWS V14.01,2014-01-07 00:05:00,
2014-01-06 19:10:00,10.5,2.0,29.75,West,261,9.0,21.0,68,0.00,,---,0.07,VWS V14.01,2014-01-07 00:10:00,
2014-01-06 19:15:00,10.5,2.0,29.75,WNW,283,7.5,16.5,68,0.00,,---,0.07,VWS V14.01,2014-01-07 00:15:00,
2014-01-06 19:20:00,10.4,2.0,29.77,SW,228,7.5,19.5,68,0.00,,---,0.07,VWS V14.01,2014-01-07 00:20:00,
2014-01-06 19:25:00,10.3,2.2,29.77,WNW,294,7.5,15.0,69,0.00,,---,0.07,VWS V14.01,2014-01-07 00:25:00,
2014-01-06 19:30:00,10.0,1.9,29.77,WNW,294,15.0,24.0,69,0.00,,---,0.07,VWS V14.01,2014-01-07 00:30:00,
2014-01-06 19:35:00,9.7,1.6,29.77,SW,226,4.5,21.0,69,0.00,,---,0.07,VWS V14.01,2014-01-07 00:35:00,
2014-01-06 19:40:00,9.4,1.6,29.77,SW,227,15.0,30.0,70,0.00,,---,0.07,VWS V14.01,2014-01-07 00:40:00,
2014-01-06 19:45:00,9.0,1.5,29.77,WSW,238,7.5,25.5,71,0.00,,---,0.07,VWS V14.01,2014-01-07 00:45:00,
2014-01-06 19:50:00,8.6,1.1,29.77,WSW,239,27.0,27.0,71,0.00,,---,0.07,VWS V14.01,2014-01-07 00:50:00,
2014-01-06 19:55:00,8.4,0.6,29.77,West,262,10.5,24.0,70,0.00,,---,0.07,VWS V14.01,2014-01-07 00:55:00,
2014-01-06 20:00:00,8.3,0.9,29.77,WSW,258,6.0,24.0,71,0.00,,---,0.07,VWS V14.01,2014-01-07 01:00:00,
2014-01-06 20:05:00,8.1,0.7,29.77,West,272,15.0,25.5,71,0.00,,---,0.07,VWS V14.01,2014-01-07 01:05:00,
2014-01-06 20:10:00,7.8,0.4,29.77,WSW,256,15.0,27.0,71,0.00,,---,0.07,VWS V14.01,2014-01-07 01:10:00,
2014-01-06 20:15:00,7.7,0.6,29.77,NNE,31,13.5,28.5,72,0.00,,---,0.07,VWS V14.01,2014-01-07 01:15:00,
2014-01-06 20:20:00,7.6,0.2,29.77,West,269,7.5,28.5,71,0.00,,---,0.07,VWS V14.01,2014-01-07 01:20:00,
2014-01-06 20:25:00,7.4,0.3,29.77,WNW,288,9.0,18.0,72,0.00,,---,0.07,VWS V14.01,2014-01-07 01:25:00,
2014-01-06 20:30:00,7.3,0.5,29.77,WSW,246,10.5,22.5,73,0.00,,---,0.07,VWS V14.01,2014-01-07 01:30:00,
2014-01-06 20:35:00,7.2,0.4,29.79,WSW,251,9.0,16.5,73,0.00,,---,0.07,VWS V14.01,2014-01-07 01:35:00,
2014-01-06 20:40:00,7.1,0.3,29.79,WSW,255,9.0,22.5,73,0.00,,---,0.07,VWS V14.01,2014-01-07 01:40:00,
2014-01-06 20:45:00,6.9,0.4,29.79,SW,224,7.5,27.0,74,0.00,,---,0.07,VWS V14.01,2014-01-07 01:45:00,
2014-01-06 20:50:00,6.8,0.3,29.79,WSW,247,9.0,27.0,74,0.00,,---,0.07,VWS V14.01,2014-01-07 01:50:00,
2014-01-06 20:55:00,6.8,0.6,29.79,West,264,7.5,19.5,75,0.00,,---,0.07,VWS V14.01,2014-01-07 01:55:00,
2014-01-06 21:00:00,6.7,0.8,29.79,WSW,245,3.0,19.5,76,0.00,,---,0.07,VWS V14.01,2014-01-07 02:00:00,
2014-01-06 21:05:00,6.6,0.7,29.79,NW,304,6.0,30.0,76,0.00,,---,0.07,VWS V14.01,2014-01-07 02:05:00,
2014-01-06 21:10:00,6.4,0.2,29.79,SW,225,10.5,30.0,75,0.00,,---,0.07,VWS V14.01,2014-01-07 02:10:00,
2014-01-06 21:15:00,6.3,0.1,29.79,West,270,9.0,15.0,75,0.00,,---,0.07,VWS V14.01,2014-01-07 02:15:00,
2014-01-06 21:20:00,6.3,0.1,29.80,WNW,288,10.5,25.5,75,0.00,,---,0.07,VWS V14.01,2014-01-07 02:20:00,
2014-01-06 21:25:00,6.2,0.6,29.80,WSW,255,13.5,24.0,77,0.00,,---,0.07,VWS V14.01,2014-01-07 02:25:00,
2014-01-06 21:30:00,6.0,0.3,29.80,West,266,10.5,24.0,77,0.00,,---,0.07,VWS V14.01,2014-01-07 02:30:00,
2014-01-06 21:35:00,5.9,0.3,29.80,South,177,6.0,22.5,77,0.00,,---,0.07,VWS V14.01,2014-01-07 02:35:00,
2014-01-06 21:40:00,5.8,0.2,29.80,West,262,13.5,22.5,77,0.00,,---,0.07,VWS V14.01,2014-01-07 02:40:00,
2014-01-06 21:45:00,5.8,0.2,29.80,SW,235,7.5,19.5,77,0.00,,---,0.07,VWS V14.01,2014-01-07 02:45:00,
2014-01-06 21:50:00,5.8,0.2,29.81,West,272,7.5,19.5,77,0.00,,---,0.07,VWS V14.01,2014-01-07 02:50:00,
2014-01-06 21:55:00,5.7,0.3,29.81,WSW,239,7.5,18.0,78,0.00,,---,0.07,VWS V14.01,2014-01-07 02:55:00,
2014-01-06 22:00:00,4.9,0.6,29.80,WSW,257,7.5,21.0,82,0.00,,---,0.07,VWS V14.01,2014-01-07 03:00:00,
2014-01-06 22:01:00,5.6,0.2,29.81,WSW,254,10.5,25.5,78,0.00,,---,0.07,VWS V14.01,2014-01-07 03:01:00,
2014-01-06 22:06:00,5.6,0.5,29.81,West,272,6.0,19.5,79,0.00,,---,0.07,VWS V14.01,2014-01-07 03:06:00,
2014-01-06 22:10:00,4.8,0.8,29.80,WNW,287,3.0,27.0,83,0.00,,---,0.07,VWS V14.01,2014-01-07 03:10:00,
2014-01-06 22:11:00,5.6,0.8,29.81,SW,228,7.5,19.5,80,0.00,,---,0.07,VWS V14.01,2014-01-07 03:11:00,
2014-01-06 22:16:00,5.5,0.7,29.80,WNW,294,7.5,18.0,80,0.00,,---,0.07,VWS V14.01,2014-01-07 03:16:00,
2014-01-06 22:20:00,4.7,0.7,29.81,WSW,256,9.0,19.5,83,0.00,,---,0.07,VWS V14.01,2014-01-07 03:20:00,
2014-01-06 22:21:00,5.4,0.9,29.80,SW,230,9.0,18.0,81,0.00,,---,0.07,VWS V14.01,2014-01-07 03:21:00,
2014-01-06 22:26:00,5.4,0.9,29.80,NNW,330,7.5,27.0,81,0.00,,---,0.07,VWS V14.01,2014-01-07 03:26:00,
2014-01-06 22:30:00,4.6,0.3,29.81,West,272,6.0,24.0,82,0.00,,---,0.07,VWS V14.01,2014-01-07 03:30:00,
2014-01-06 22:31:00,5.3,1.0,29.80,WSW,244,9.0,27.0,82,0.00,,---,0.07,VWS V14.01,2014-01-07 03:31:00,
2014-01-06 22:36:00,5.2,0.9,29.80,WSW,246,3.0,15.0,82,0.00,,---,0.07,VWS V14.01,2014-01-07 03:36:00,
2014-01-06 22:40:00,4.6,0.3,29.81,WNW,284,7.5,27.0,82,0.00,,---,0.07,VWS V14.01,2014-01-07 03:40:00,
2014-01-06 22:41:00,5.1,0.8,29.80,West,265,7.5,21.0,82,0.00,,---,0.07,VWS V14.01,2014-01-07 03:41:00,
2014-01-06 22:46:00,5.1,0.8,29.81,WNW,289,9.0,25.5,82,0.00,,---,0.07,VWS V14.01,2014-01-07 03:46:00,
2014-01-06 22:50:00,4.6,0.6,29.81,NW,326,6.0,16.5,83,0.00,,---,0.07,VWS V14.01,2014-01-07 03:50:00,
2014-01-06 22:51:00,5.1,0.8,29.81,WSW,246,6.0,25.5,82,0.00,,---,0.07,VWS V14.01,2014-01-07 03:51:00,
2014-01-06 22:56:00,5.0,0.7,29.81,West,263,15.0,21.0,82,0.00,,---,0.07,VWS V14.01,2014-01-07 03:56:00,
2014-01-06 23:00:00,4.6,0.6,29.81,WSW,254,10.5,21.0,83,0.00,,---,0.07,VWS V14.01,2014-01-07 04:00:00,
2014-01-06 23:01:00,5.0,0.7,29.80,WSW,239,10.5,21.0,82,0.00,,---,0.07,VWS V14.01,2014-01-07 04:01:00,
2014-01-06 23:06:00,4.9,0.9,29.80,West,278,13.5,27.0,83,0.00,,---,0.07,VWS V14.01,2014-01-07 04:06:00,
2014-01-06 23:11:00,4.8,0.8,29.80,SW,230,7.5,27.0,83,0.00,,---,0.07,VWS V14.01,2014-01-07 04:11:00,
2014-01-06 23:16:00,4.8,0.8,29.81,West,276,9.0,19.5,83,0.00,,---,0.07,VWS V14.01,2014-01-07 04:16:00,
2014-01-06 23:20:00,4.5,0.7,29.82,WSW,246,4.5,27.0,84,0.00,,---,0.00,VWS V14.01,2014-01-07 04:20:00,
2014-01-06 23:21:00,4.7,0.7,29.81,WSW,241,16.5,19.5,83,0.00,,---,0.07,VWS V14.01,2014-01-07 04:21:00,
2014-01-06 23:26:00,4.7,0.7,29.81,WNW,286,6.0,24.0,83,0.00,,---,0.07,VWS V14.01,2014-01-07 04:26:00,
2014-01-06 23:30:00,4.6,0.6,29.82,West,273,7.5,28.5,83,0.00,,---,0.00,VWS V14.01,2014-01-07 04:30:00,
2014-01-06 23:31:00,4.6,0.3,29.81,SW,233,7.5,24.0,82,0.00,,---,0.07,VWS V14.01,2014-01-07 04:31:00,
2014-01-06 23:36:00,4.6,0.6,29.81,West,273,15.0,27.0,83,0.00,,---,0.07,VWS V14.01,2014-01-07 04:36:00,
2014-01-06 23:40:00,4.6,0.3,29.82,WNW,294,7.5,19.5,82,0.00,,---,0.00,VWS V14.01,2014-01-07 04:40:00,
2014-01-06 23:41:00,4.6,0.3,29.81,WSW,256,9.0,27.0,82,0.00,,---,0.07,VWS V14.01,2014-01-07 04:41:00,
2014-01-06 23:46:00,4.6,0.6,29.81,West,281,7.5,13.5,83,0.00,,---,0.07,VWS V14.01,2014-01-07 04:46:00,
2014-01-06 23:50:00,4.5,0.0,29.83,West,263,7.5,28.5,81,0.00,,---,0.00,VWS V14.01,2014-01-07 04:50:00,
2014-01-06 23:51:00,4.6,0.6,29.81,West,261,6.0,16.5,83,0.00,,---,0.07,VWS V14.01,2014-01-07 04:51:00,
2014-01-06 23:56:00,4.6,0.6,29.81,West,270,9.0,21.0,83,0.00,,---,0.07,VWS V14.01,2014-01-07 04:56:00,